createdAt,value
2018-05-21T00:00:54.699Z,66.00
2018-05-21T00:03:22.175Z,65.70
2018-05-21T00:05:49.642Z,65.10
2018-05-21T00:08:17.062Z,65.70
2018-05-21T00:10:45.249Z,65.50
2018-05-21T00:13:14.201Z,65.50
2018-05-21T00:15:41.674Z,65.50
2018-05-21T00:18:09.147Z,65.70
2018-05-21T00:20:36.614Z,65.20
2018-05-21T00:23:04.082Z,65.10
2018-05-21T00:25:31.506Z,65.70
2018-05-21T00:27:59.018Z,65.80
2018-05-21T00:30:26.454Z,65.40
2018-05-21T00:32:54.660Z,65.40
2018-05-21T00:35:22.863Z,65.70
2018-05-21T00:37:50.290Z,65.60
2018-05-21T00:40:17.715Z,65.70
2018-05-21T00:42:45.133Z,65.50
2018-05-21T00:45:12.590Z,65.40
2018-05-21T00:47:40.111Z,65.50
2018-05-21T00:50:07.526Z,66.00
2018-05-21T00:52:35.055Z,65.30
2018-05-21T00:55:14.408Z,65.60
2018-05-21T00:57:41.880Z,65.50
2018-05-21T01:00:09.298Z,65.30
2018-05-21T01:02:36.731Z,65.30
2018-05-21T01:05:04.147Z,65.10
2018-05-21T01:07:32.366Z,65.30
2018-05-21T01:09:59.839Z,65.30
2018-05-21T01:12:27.322Z,65.50
2018-05-21T01:14:54.742Z,65.50
2018-05-21T01:17:22.938Z,65.20
2018-05-21T01:19:51.118Z,64.80
2018-05-21T01:22:19.354Z,64.90
2018-05-21T01:24:46.774Z,64.90
2018-05-21T01:27:15.022Z,64.60
2018-05-21T01:29:42.464Z,64.60
2018-05-21T01:32:09.885Z,64.60
2018-05-21T01:34:37.402Z,64.50
2018-05-21T01:37:04.832Z,64.70
2018-05-21T01:39:32.312Z,64.60
2018-05-21T01:42:00.515Z,64.40
2018-05-21T01:44:27.930Z,64.40
2018-05-21T01:46:55.370Z,64.90
2018-05-21T01:49:22.837Z,64.80
2018-05-21T01:51:50.306Z,64.80
2018-05-21T01:54:17.781Z,65.20
2018-05-21T01:56:45.202Z,65.20
2018-05-21T01:59:14.134Z,65.20
2018-05-21T02:01:41.622Z,65.20
2018-05-21T02:04:09.094Z,65.40
2018-05-21T02:06:36.518Z,65.60
2018-05-21T02:09:05.726Z,65.10
2018-05-21T02:11:33.247Z,65.00
2018-05-21T02:14:00.706Z,65.40
2018-05-21T02:16:28.186Z,65.10
2018-05-21T02:18:55.615Z,65.00
2018-05-21T02:21:23.835Z,66.40
2018-05-21T02:23:51.312Z,65.70
2018-05-21T02:26:18.726Z,65.20
2018-05-21T02:28:46.962Z,65.20
2018-05-21T02:31:14.451Z,65.20
2018-05-21T02:33:41.903Z,65.70
2018-05-21T02:36:09.327Z,65.60
2018-05-21T02:38:37.515Z,65.70
2018-05-21T02:41:05.043Z,65.70
2018-05-21T02:43:32.472Z,65.90
2018-05-21T02:46:00.688Z,66.00
2018-05-21T02:48:28.126Z,65.90
2018-05-21T02:50:56.317Z,66.40
2018-05-21T02:53:24.537Z,66.90
2018-05-21T02:55:51.963Z,66.80
2018-05-21T02:58:19.473Z,67.60
2018-05-21T03:00:46.898Z,66.80
2018-05-21T03:03:14.322Z,67.10
2018-05-21T03:05:41.783Z,66.80
2018-05-21T03:08:09.207Z,66.70
2018-05-21T03:10:36.719Z,67.30
2018-05-21T03:13:04.210Z,67.70
2018-05-21T03:15:31.638Z,67.90
2018-05-21T03:17:59.818Z,67.90
2018-05-21T03:20:28.013Z,67.80
2018-05-21T03:22:56.204Z,67.90
2018-05-21T03:25:24.403Z,68.50
2018-05-21T03:27:51.875Z,68.40
2018-05-21T03:30:19.309Z,68.80
2018-05-21T03:32:48.254Z,68.80
2018-05-21T03:35:15.682Z,68.80
2018-05-21T03:37:43.194Z,68.70
2018-05-21T03:40:10.618Z,69.00
2018-05-21T03:42:38.645Z,69.00
2018-05-21T03:45:06.071Z,70.20
2018-05-21T03:47:33.588Z,69.80
2018-05-21T03:50:01.054Z,69.90
2018-05-21T03:52:28.470Z,69.90
2018-05-21T03:54:57.412Z,71.30
2018-05-21T03:57:24.893Z,70.60
2018-05-21T04:00:04.176Z,70.60
2018-05-21T04:02:43.703Z,70.80
2018-05-21T04:05:11.168Z,70.80
2018-05-21T04:07:38.596Z,71.40
2018-05-21T04:10:06.103Z,71.20
2018-05-21T04:12:33.578Z,71.20
2018-05-21T04:15:01.043Z,72.10
2018-05-21T04:17:28.518Z,72.00
2018-05-21T04:19:55.934Z,71.90
2018-05-21T04:22:23.362Z,72.10
2018-05-21T04:24:50.784Z,72.70
2018-05-21T04:27:18.209Z,73.20
2018-05-21T04:29:45.666Z,73.00
2018-05-21T04:32:13.134Z,73.10
2018-05-21T04:34:40.606Z,73.30
2018-05-21T04:37:08.071Z,73.00
2018-05-21T04:39:35.569Z,73.20
2018-05-21T04:42:03.170Z,73.60
2018-05-21T04:44:30.594Z,73.70
2018-05-21T04:46:58.015Z,73.50
2018-05-21T04:49:26.243Z,74.60
2018-05-21T04:51:53.709Z,74.00
2018-05-21T04:54:21.183Z,73.60
2018-05-21T04:56:48.607Z,73.90
2018-05-21T04:59:16.025Z,74.40
2018-05-21T05:01:43.482Z,74.60
2018-05-21T05:04:10.908Z,74.30
2018-05-21T05:06:39.102Z,75.00
2018-05-21T05:09:06.614Z,75.10
2018-05-21T05:11:34.039Z,75.10
2018-05-21T05:14:01.557Z,75.40
2018-05-21T05:16:29.021Z,76.00
2018-05-21T05:18:56.490Z,75.30
2018-05-21T05:21:23.909Z,75.60
2018-05-21T05:23:51.435Z,75.80
2018-05-21T05:26:18.858Z,76.10
2018-05-21T05:28:46.375Z,76.10
2018-05-21T05:31:13.798Z,76.20
2018-05-21T05:33:41.990Z,76.80
2018-05-21T05:36:09.498Z,76.80
2018-05-21T05:38:36.930Z,76.80
2018-05-21T05:41:04.350Z,76.90
2018-05-21T05:43:31.773Z,77.20
2018-05-21T05:45:59.994Z,77.20
2018-05-21T05:48:27.423Z,77.20
2018-05-21T05:50:54.938Z,77.30
2018-05-21T05:53:22.362Z,77.70
2018-05-21T05:55:49.806Z,77.00
2018-05-21T05:58:17.347Z,77.60
2018-05-21T06:00:44.822Z,77.50
2018-05-21T06:03:12.246Z,77.10
2018-05-21T06:05:39.755Z,76.80
2018-05-21T06:08:07.184Z,78.40
2018-05-21T06:10:34.699Z,78.00
2018-05-21T06:13:02.114Z,78.00
2018-05-21T06:15:29.642Z,77.40
2018-05-21T06:17:57.058Z,77.00
2018-05-21T06:20:24.486Z,77.80
2018-05-21T06:22:51.939Z,77.90
2018-05-21T06:25:19.410Z,78.30
2018-05-21T06:27:46.834Z,78.20
2018-05-21T06:30:14.262Z,78.90
2018-05-21T06:32:41.722Z,77.30
2018-05-21T06:35:09.148Z,77.60
2018-05-21T06:37:36.659Z,78.70
2018-05-21T06:40:04.127Z,78.80
2018-05-21T06:42:31.551Z,77.90
2018-05-21T06:45:00.496Z,78.90
2018-05-21T06:47:27.983Z,78.90
2018-05-21T06:49:55.438Z,77.50
2018-05-21T06:52:22.911Z,77.80
2018-05-21T06:54:50.344Z,78.30
2018-05-21T06:57:17.851Z,77.50
2018-05-21T06:59:45.348Z,78.20
2018-05-21T07:02:12.698Z,78.50
2018-05-21T07:04:40.131Z,77.60
2018-05-21T07:07:08.314Z,77.10
2018-05-21T07:09:36.539Z,75.70
2018-05-21T07:12:04.011Z,75.70
2018-05-21T07:14:31.446Z,75.70
2018-05-21T07:16:59.656Z,77.20
2018-05-21T07:19:27.074Z,77.20
2018-05-21T07:21:54.602Z,77.40
2018-05-21T07:24:22.052Z,77.40
2018-05-21T07:26:49.543Z,77.90
2018-05-21T07:29:16.967Z,77.20
2018-05-21T07:31:45.159Z,76.30
2018-05-21T07:34:12.667Z,76.30
2018-05-21T07:36:40.142Z,74.30
2018-05-21T07:39:07.563Z,72.50
2018-05-21T07:41:36.499Z,71.70
2018-05-21T07:44:03.987Z,71.70
2018-05-21T07:46:31.414Z,74.40
2018-05-21T07:48:59.659Z,73.70
2018-05-21T07:51:27.240Z,73.70
2018-05-21T07:53:54.526Z,71.60
2018-05-21T07:56:21.955Z,72.80
2018-05-21T07:58:49.401Z,73.00
2018-05-21T08:01:16.886Z,72.20
2018-05-21T08:03:44.305Z,73.10
2018-05-21T08:06:11.727Z,72.80
2018-05-21T08:08:39.150Z,70.20
2018-05-21T08:11:07.396Z,72.30
2018-05-21T08:13:34.809Z,73.60
2018-05-21T08:16:03.106Z,72.80
2018-05-21T08:18:31.290Z,70.80
2018-05-21T08:20:59.494Z,71.50
2018-05-21T08:23:26.977Z,71.40
2018-05-21T08:25:54.427Z,71.70
2018-05-21T08:28:22.606Z,70.10
2018-05-21T08:30:50.791Z,70.00
2018-05-21T08:33:19.015Z,71.00
2018-05-21T08:35:46.436Z,70.90
2018-05-21T08:38:13.858Z,68.70
2018-05-21T08:40:41.274Z,69.00
2018-05-21T08:43:08.698Z,65.40
2018-05-21T08:45:36.114Z,65.30
2018-05-21T08:48:03.633Z,64.70
2018-05-21T08:50:31.099Z,64.90
2018-05-21T08:52:58.566Z,65.80
2018-05-21T08:55:26.031Z,64.30
2018-05-21T08:57:53.464Z,66.00
2018-05-21T09:00:20.980Z,65.40
2018-05-21T09:02:48.351Z,63.40
2018-05-21T09:05:15.766Z,64.90
2018-05-21T09:07:43.287Z,64.00
2018-05-21T09:10:10.855Z,64.70
2018-05-21T09:12:38.183Z,63.10
2018-05-21T09:15:05.611Z,64.50
2018-05-21T09:17:33.059Z,65.70
2018-05-21T09:20:00.486Z,65.00
2018-05-21T09:22:28.004Z,65.40
2018-05-21T09:24:55.468Z,63.10
2018-05-21T09:27:22.943Z,62.50
2018-05-21T09:29:50.407Z,63.60
2018-05-21T09:32:17.908Z,63.40
2018-05-21T09:34:45.348Z,65.50
2018-05-21T09:37:12.816Z,65.30
2018-05-21T09:39:40.247Z,64.00
2018-05-21T09:42:07.737Z,63.30
2018-05-21T09:44:35.110Z,63.30
2018-05-21T09:47:02.700Z,63.40
2018-05-21T09:49:30.110Z,64.90
2018-05-21T09:51:57.531Z,64.60
2018-05-21T09:54:24.951Z,58.00
2018-05-21T09:56:52.478Z,56.60
2018-05-21T09:59:20.766Z,55.90
2018-05-21T10:01:48.191Z,55.50
2018-05-21T10:04:15.703Z,56.30
2018-05-21T10:06:43.118Z,57.70
2018-05-21T10:09:10.551Z,55.40
2018-05-21T10:11:37.971Z,56.00
2018-05-21T10:14:05.395Z,54.70
2018-05-21T10:16:32.959Z,51.90
2018-05-21T10:19:00.387Z,51.80
2018-05-21T10:21:28.615Z,54.80
2018-05-21T10:23:56.038Z,54.70
2018-05-21T10:26:23.555Z,51.90
2018-05-21T10:28:50.983Z,52.40
2018-05-21T10:31:18.495Z,51.50
2018-05-21T10:33:45.963Z,50.20
2018-05-21T10:36:13.435Z,50.10
2018-05-21T10:38:40.864Z,50.30
2018-05-21T10:41:09.043Z,48.90
2018-05-21T10:43:36.565Z,48.20
2018-05-21T10:46:03.982Z,47.40
2018-05-21T10:48:31.415Z,47.60
2018-05-21T10:50:58.830Z,47.30
2018-05-21T10:53:27.025Z,49.30
2018-05-21T10:55:55.243Z,48.40
2018-05-21T10:58:22.714Z,48.40
2018-05-21T11:00:50.174Z,48.20
2018-05-21T11:03:17.649Z,47.00
2018-05-21T11:05:45.115Z,45.00
2018-05-21T11:08:12.546Z,45.30
2018-05-21T11:10:39.964Z,45.60
2018-05-21T11:13:07.387Z,45.20
2018-05-21T11:15:34.900Z,45.50
2018-05-21T11:18:02.389Z,46.50
2018-05-21T11:20:29.834Z,47.50
2018-05-21T11:22:57.307Z,46.10
2018-05-21T11:25:24.774Z,45.90
2018-05-21T11:27:52.194Z,45.00
2018-05-21T11:30:20.382Z,43.50
2018-05-21T11:32:47.907Z,43.60
2018-05-21T11:35:15.375Z,45.30
2018-05-21T11:37:42.790Z,44.30
2018-05-21T11:40:10.214Z,41.80
2018-05-21T11:42:37.682Z,42.50
2018-05-21T11:45:05.150Z,43.10
2018-05-21T11:47:32.567Z,43.60
2018-05-21T11:49:59.994Z,45.70
2018-05-21T11:52:27.485Z,44.70
2018-05-21T11:54:55.642Z,43.80
2018-05-21T11:57:23.110Z,43.70
2018-05-21T11:59:50.579Z,43.30
2018-05-21T12:02:18.012Z,42.90
2018-05-21T12:04:45.519Z,41.50
2018-05-21T12:07:12.942Z,41.90
2018-05-21T12:09:41.875Z,42.30
2018-05-21T12:12:10.079Z,42.60
2018-05-21T12:14:37.506Z,42.50
2018-05-21T12:17:04.936Z,42.80
2018-05-21T12:19:32.395Z,43.60
2018-05-21T12:21:59.807Z,44.20
2018-05-21T12:24:27.238Z,45.50
2018-05-21T12:26:54.704Z,45.20
2018-05-21T12:29:22.194Z,45.20
2018-05-21T12:31:49.667Z,44.60
2018-05-21T12:34:17.106Z,44.60
2018-05-21T12:36:44.530Z,45.50
2018-05-21T12:39:12.051Z,47.20
2018-05-21T12:41:39.479Z,46.20
2018-05-21T12:44:07.000Z,45.70
2018-05-21T12:46:34.470Z,46.70
2018-05-21T12:49:01.901Z,47.60
2018-05-21T12:51:30.114Z,46.50
2018-05-21T12:53:57.579Z,46.40
2018-05-21T12:56:25.000Z,43.90
2018-05-21T12:58:52.422Z,45.80
2018-05-21T13:01:19.843Z,44.90
2018-05-21T13:03:47.365Z,45.00
2018-05-21T13:06:14.792Z,44.30
2018-05-21T13:08:43.018Z,45.20
2018-05-21T13:11:10.489Z,45.00
2018-05-21T13:13:37.908Z,41.60
2018-05-21T13:16:05.330Z,43.10
2018-05-21T13:18:32.802Z,44.10
2018-05-21T13:21:00.230Z,43.40
2018-05-21T13:23:28.422Z,41.30
2018-05-21T13:25:56.615Z,41.50
2018-05-21T13:28:24.800Z,42.00
2018-05-21T13:30:53.007Z,42.10
2018-05-21T13:33:20.479Z,42.00
2018-05-21T13:35:47.959Z,41.90
2018-05-21T13:38:15.378Z,41.10
2018-05-21T13:40:42.842Z,39.40
2018-05-21T13:43:10.321Z,40.20
2018-05-21T13:45:37.719Z,40.00
2018-05-21T13:48:05.237Z,38.80
2018-05-21T13:50:32.667Z,39.30
2018-05-21T13:53:00.088Z,40.00
2018-05-21T13:55:27.610Z,38.70
2018-05-21T13:57:55.078Z,38.70
2018-05-21T14:00:22.552Z,38.40
2018-05-21T14:02:49.966Z,38.50
2018-05-21T14:05:17.493Z,39.40
2018-05-21T14:07:44.957Z,38.00
2018-05-21T14:10:12.427Z,38.10
2018-05-21T14:12:40.014Z,38.00
2018-05-21T14:15:07.326Z,39.00
2018-05-21T14:17:35.535Z,40.00
2018-05-21T14:20:03.752Z,39.40
2018-05-21T14:22:31.170Z,39.40
2018-05-21T14:24:59.370Z,40.80
2018-05-21T14:27:27.583Z,41.50
2018-05-21T14:29:55.003Z,41.40
2018-05-21T14:32:22.423Z,40.70
2018-05-21T14:34:49.871Z,40.40
2018-05-21T14:37:18.078Z,39.70
2018-05-21T14:39:45.505Z,39.70
2018-05-21T14:42:12.998Z,38.70
2018-05-21T14:44:41.230Z,39.10
2018-05-21T14:47:08.655Z,39.10
2018-05-21T14:49:36.846Z,37.80
2018-05-21T14:52:05.031Z,39.10
2018-05-21T14:54:33.224Z,38.60
2018-05-21T14:57:00.640Z,38.60
2018-05-21T14:59:28.067Z,38.80
2018-05-21T15:01:55.492Z,38.40
2018-05-21T15:04:23.063Z,39.40
2018-05-21T15:06:50.585Z,39.70
2018-05-21T15:09:18.059Z,39.90
2018-05-21T15:11:45.522Z,39.60
2018-05-21T15:14:12.990Z,39.60
2018-05-21T15:16:40.414Z,40.40
2018-05-21T15:19:07.938Z,41.50
2018-05-21T15:21:35.402Z,41.00
2018-05-21T15:24:02.882Z,39.80
2018-05-21T15:26:30.305Z,40.00
2018-05-21T15:28:57.814Z,40.20
2018-05-21T15:31:25.306Z,39.40
2018-05-21T15:33:52.729Z,37.80
2018-05-21T15:36:20.951Z,37.50
2018-05-21T15:38:48.414Z,37.50
2018-05-21T15:41:15.852Z,37.50
2018-05-21T15:43:43.263Z,37.60
2018-05-21T15:46:10.722Z,37.60
2018-05-21T15:48:38.281Z,38.50
2018-05-21T15:51:05.682Z,37.00
2018-05-21T15:53:33.114Z,36.50
2018-05-21T15:56:00.542Z,37.10
2018-05-21T15:58:27.963Z,36.20
2018-05-21T16:00:55.391Z,37.90
2018-05-21T16:03:22.902Z,36.30
2018-05-21T16:05:50.331Z,36.30
2018-05-21T16:08:17.750Z,36.50
2018-05-21T16:10:45.179Z,36.70
2018-05-21T16:13:13.362Z,37.30
2018-05-21T16:15:41.559Z,37.70
2018-05-21T16:18:09.751Z,38.10
2018-05-21T16:20:37.966Z,37.50
2018-05-21T16:23:05.430Z,37.40
2018-05-21T16:25:32.858Z,38.40
2018-05-21T16:28:00.383Z,37.90
2018-05-21T16:30:27.806Z,38.30
2018-05-21T16:32:55.998Z,38.60
2018-05-21T16:35:24.220Z,39.20
2018-05-21T16:37:51.680Z,39.10
2018-05-21T16:40:19.112Z,39.10
2018-05-21T16:42:46.531Z,39.80
2018-05-21T16:45:13.987Z,39.90
2018-05-21T16:47:41.508Z,39.70
2018-05-21T16:50:08.935Z,40.50
2018-05-21T16:52:36.410Z,41.10
2018-05-21T16:55:03.849Z,41.70
2018-05-21T16:57:32.040Z,41.30
2018-05-21T17:00:00.228Z,41.30
2018-05-21T17:02:27.710Z,41.30
2018-05-21T17:04:55.136Z,41.90
2018-05-21T17:07:22.725Z,42.20
2018-05-21T17:09:50.139Z,43.40
2018-05-21T17:12:17.591Z,44.00
2018-05-21T17:14:45.023Z,43.40
2018-05-21T17:17:12.438Z,43.60
2018-05-21T17:19:39.858Z,43.10
2018-05-21T17:22:07.375Z,43.70
2018-05-21T17:24:34.791Z,44.30
2018-05-21T17:27:02.223Z,44.90
2018-05-21T17:29:29.683Z,45.50
2018-05-21T17:31:57.122Z,45.00
2018-05-21T17:34:25.351Z,45.10
2018-05-21T17:36:52.802Z,45.00
2018-05-21T17:39:20.286Z,45.90
2018-05-21T17:41:47.699Z,46.20
2018-05-21T17:44:15.124Z,46.30
2018-05-21T17:46:42.550Z,46.60
2018-05-21T17:49:10.744Z,47.10
2018-05-21T17:51:38.982Z,47.00
2018-05-21T17:54:07.139Z,47.60
2018-05-21T17:56:34.567Z,47.60
2018-05-21T17:59:01.988Z,48.00
2018-05-21T18:01:29.415Z,48.60
2018-05-21T18:03:57.632Z,48.40
2018-05-21T18:06:25.054Z,48.40
2018-05-21T18:08:52.524Z,49.10
2018-05-21T18:11:19.905Z,49.50
2018-05-21T18:13:48.127Z,51.50
2018-05-21T18:16:15.594Z,51.40
2018-05-21T18:18:43.102Z,52.10
2018-05-21T18:21:10.543Z,53.80
2018-05-21T18:23:37.984Z,54.90
2018-05-21T18:26:05.487Z,56.00
2018-05-21T18:28:32.947Z,57.20
2018-05-21T18:31:00.423Z,56.80
2018-05-21T18:33:27.848Z,57.40
2018-05-21T18:35:55.349Z,58.00
2018-05-21T18:38:22.723Z,58.50
2018-05-21T18:40:50.199Z,58.70
2018-05-21T18:43:17.625Z,59.10
2018-05-21T18:45:45.143Z,59.50
2018-05-21T18:48:12.566Z,60.20
2018-05-21T18:50:40.078Z,60.60
2018-05-21T18:53:07.494Z,60.70
2018-05-21T18:55:35.016Z,61.30
2018-05-21T18:58:02.439Z,61.30
2018-05-21T19:00:29.867Z,61.50
2018-05-21T19:02:57.328Z,61.70
2018-05-21T19:05:24.759Z,62.40
2018-05-21T19:07:52.948Z,63.60
2018-05-21T19:10:21.142Z,63.60
2018-05-21T19:12:49.386Z,63.70
2018-05-21T19:15:16.856Z,63.70
2018-05-21T19:17:44.307Z,63.80
2018-05-21T19:20:11.723Z,64.20
2018-05-21T19:22:39.163Z,64.70
2018-05-21T19:25:06.589Z,66.30
2018-05-21T19:27:34.037Z,66.90
2018-05-21T19:30:01.643Z,67.50
2018-05-21T19:32:29.069Z,67.70
2018-05-21T19:34:58.109Z,68.30
2018-05-21T19:37:25.481Z,68.30
2018-05-21T19:39:53.642Z,68.60
2018-05-21T19:42:22.578Z,69.10
2018-05-21T19:44:49.998Z,69.10
2018-05-21T19:47:18.954Z,70.40
2018-05-21T19:49:46.380Z,70.40
2018-05-21T19:52:15.346Z,71.50
2018-05-21T19:54:42.805Z,71.40
2018-05-21T19:57:10.227Z,71.90
2018-05-21T19:59:37.646Z,72.30
2018-05-21T20:02:05.111Z,73.40
2018-05-21T20:04:32.541Z,72.90
2018-05-21T20:07:00.730Z,73.60
2018-05-21T20:09:28.922Z,73.60
2018-05-21T20:11:57.123Z,73.60
2018-05-21T20:14:24.551Z,73.60
2018-05-21T20:16:51.988Z,74.00
2018-05-21T20:19:19.926Z,74.10
2018-05-21T20:21:47.305Z,74.30
2018-05-21T20:24:14.735Z,74.60
2018-05-21T20:26:42.260Z,75.30
2018-05-21T20:29:09.734Z,75.50
2018-05-21T20:31:37.155Z,75.60
2018-05-21T20:34:04.675Z,75.80
2018-05-21T20:36:32.144Z,75.90
2018-05-21T20:38:59.571Z,76.10
2018-05-21T20:41:26.987Z,76.20
2018-05-21T20:43:54.422Z,76.40
2018-05-21T20:46:22.610Z,76.60
2018-05-21T20:48:50.808Z,77.10
2018-05-21T20:51:18.238Z,77.10
2018-05-21T20:53:47.202Z,77.50
2018-05-21T20:56:14.618Z,77.50
2018-05-21T20:58:43.579Z,77.60
2018-05-21T21:01:11.010Z,77.50
2018-05-21T21:03:39.230Z,78.10
2018-05-21T21:06:06.647Z,78.10
2018-05-21T21:08:34.067Z,78.30
2018-05-21T21:11:01.510Z,78.20
2018-05-21T21:13:29.702Z,78.40
2018-05-21T21:15:57.135Z,78.40
2018-05-21T21:18:26.067Z,79.00
2018-05-21T21:20:54.301Z,79.10
2018-05-21T21:23:21.785Z,79.00
2018-05-21T21:25:49.952Z,78.70
2018-05-21T21:28:17.366Z,78.50
2018-05-21T21:30:44.794Z,78.00
2018-05-21T21:33:12.218Z,77.70
2018-05-21T21:35:40.430Z,77.60
2018-05-21T21:38:07.899Z,77.60
2018-05-21T21:40:35.326Z,77.60
2018-05-21T21:43:02.762Z,77.40
2018-05-21T21:45:30.218Z,78.00
2018-05-21T21:47:57.647Z,77.10
2018-05-21T21:50:25.833Z,77.10
2018-05-21T21:52:54.054Z,76.90
2018-05-21T21:55:21.478Z,76.90
2018-05-21T21:57:48.898Z,76.90
2018-05-21T22:00:16.363Z,77.30
2018-05-21T22:02:43.828Z,77.00
2018-05-21T22:05:11.303Z,76.70
2018-05-21T22:07:38.770Z,76.10
2018-05-21T22:10:06.248Z,76.20
2018-05-21T22:12:33.818Z,76.30
2018-05-21T22:15:01.234Z,76.10
2018-05-21T22:17:28.676Z,76.10
2018-05-21T22:19:56.123Z,76.00
2018-05-21T22:22:23.546Z,75.60
2018-05-21T22:24:51.782Z,76.10
2018-05-21T22:27:19.201Z,75.70
2018-05-21T22:29:46.713Z,75.50
2018-05-21T22:32:14.187Z,76.00
2018-05-21T22:34:41.602Z,75.40
2018-05-21T22:37:09.124Z,75.10
2018-05-21T22:39:36.599Z,74.90
2018-05-21T22:42:04.030Z,74.30
2018-05-21T22:44:46.266Z,74.40
2018-05-21T22:47:14.460Z,74.30
2018-05-21T22:49:41.874Z,74.30
2018-05-21T22:52:09.306Z,74.50
2018-05-21T22:54:36.775Z,74.50
2018-05-21T22:57:04.196Z,74.40
2018-05-21T22:59:31.626Z,74.20
2018-05-21T23:01:59.050Z,74.20
2018-05-21T23:04:27.276Z,74.30
2018-05-21T23:06:54.698Z,74.20
2018-05-21T23:09:23.079Z,74.30
2018-05-21T23:11:51.263Z,74.00
2018-05-21T23:14:18.708Z,74.10
2018-05-21T23:16:46.158Z,73.80
2018-05-21T23:19:13.590Z,73.80
2018-05-21T23:21:41.095Z,73.70
2018-05-21T23:24:08.632Z,74.00
2018-05-21T23:26:37.570Z,74.10
2018-05-21T23:29:04.997Z,74.10
2018-05-21T23:31:32.414Z,74.20
2018-05-21T23:33:59.885Z,74.00
2018-05-21T23:36:28.046Z,73.60
2018-05-21T23:38:56.242Z,72.80
2018-05-21T23:41:23.732Z,72.70
2018-05-21T23:43:51.159Z,72.80
2018-05-21T23:46:19.359Z,73.80
2018-05-21T23:48:47.563Z,74.10
2018-05-21T23:51:14.985Z,74.00
2018-05-21T23:53:42.510Z,74.40
2018-05-21T23:56:09.930Z,74.20
2018-05-21T23:58:37.358Z,74.70
